Time;durP1;ratioP1;P1;durP2;ratioP2;P2;SDS_P1;SDS_P2;PMS_P1;PMS_P2;Temp;Humidity;BMP_temperature;BMP_pressure;BME280_temperature;BME280_humidity;BME280_pressure;Samples;Min_cycle;Max_cycle;Signal;HPM_P1;HPM_P2
2023/09/19 00:00:40;;;;;;;91.97;86.45;;;19.20;99.90;;;;;;5054039;28;20076;-70
2023/09/19 00:03:06;;;;;;;80.13;75.25;;;19.30;99.90;;;;;;5054697;28;20041;-71
2023/09/19 00:05:35;;;;;;;76.32;71.50;;;19.20;99.90;;;;;;5053824;28;20033;-71
2023/09/19 00:08:04;;;;;;;69.03;64.78;;;19.20;99.90;;;;;;5054210;28;20490;-71
2023/09/19 00:10:31;;;;;;;58.65;55.20;;;19.20;99.90;;;;;;5053915;28;20040;-71
2023/09/19 00:13:05;;;;;;;55.80;51.83;;;19.20;99.90;;;;;;5054454;28;20513;-71
2023/09/19 00:15:35;;;;;;;53.22;49.42;;;19.20;99.90;;;;;;5052789;28;20058;-71
2023/09/19 00:18:06;;;;;;;54.83;51.35;;;19.20;99.90;;;;;;5053733;28;20045;-71
2023/09/19 00:20:34;;;;;;;55.42;51.75;;;19.20;99.90;;;;;;5053568;28;20056;-71
2023/09/19 00:23:08;;;;;;;69.10;64.90;;;19.20;99.90;;;;;;5054343;28;20403;-71
2023/09/19 00:25:35;;;;;;;47.08;43.72;;;19.10;99.90;;;;;;5053857;28;20045;-71
2023/09/19 00:28:01;;;;;;;43.03;39.08;;;19.10;99.90;;;;;;5054267;28;20036;-71
2023/09/19 00:30:28;;;;;;;39.38;36.13;;;19.10;99.90;;;;;;5053339;28;20036;-71
2023/09/19 00:32:54;;;;;;;39.20;35.92;;;19.10;99.90;;;;;;5054093;28;20025;-71
2023/09/19 00:35:27;;;;;;;41.75;38.65;;;19.10;99.90;;;;;;5053648;28;20154;-71
2023/09/19 00:37:53;;;;;;;46.17;42.75;;;19.10;99.90;;;;;;5039226;28;20396;-71
2023/09/19 00:40:21;;;;;;;57.08;53.17;;;19.10;99.90;;;;;;5034677;28;20036;-71
2023/09/19 00:42:47;;;;;;;59.95;55.78;;;19.10;99.90;;;;;;5052243;28;20471;-71
2023/09/19 00:45:14;;;;;;;51.90;48.28;;;19.10;99.90;;;;;;5052969;28;20029;-71
2023/09/19 00:47:46;;;;;;;58.70;54.95;;;19.10;99.90;;;;;;5052422;28;20029;-71
2023/09/19 00:50:14;;;;;;;54.70;51.08;;;19.10;99.90;;;;;;5051688;28;20033;-71
2023/09/19 00:52:41;;;;;;;47.97;44.67;;;19.10;99.90;;;;;;5052034;28;20049;-73
2023/09/19 00:55:08;;;;;;;43.38;40.58;;;19.10;99.90;;;;;;5052374;28;20028;-73
2023/09/19 00:57:35;;;;;;;41.15;38.13;;;19.10;99.90;;;;;;5053152;28;20033;-73
2023/09/19 01:00:05;;;;;;;37.55;34.53;;;19.00;99.90;;;;;;5035959;28;20040;-72
2023/09/19 01:02:32;;;;;;;48.55;44.78;;;18.90;99.90;;;;;;5052114;28;20045;-73
2023/09/19 01:04:59;;;;;;;50.92;47.15;;;18.90;99.90;;;;;;5053585;28;20490;-73
2023/09/19 01:07:30;;;;;;;36.20;33.28;;;18.90;99.90;;;;;;5052970;28;20045;-73
2023/09/19 01:09:58;;;;;;;35.15;32.67;;;18.90;99.90;;;;;;5036359;28;20044;-73
2023/09/19 01:12:46;;;;;;;32.88;30.33;;;18.80;99.90;;;;;;5052604;28;20041;-73
2023/09/19 01:15:33;;;;;;;34.40;31.75;;;18.80;99.90;;;;;;5051891;28;20387;-72
2023/09/19 01:18:12;;;;;;;35.40;32.58;;;18.80;99.90;;;;;;5051863;28;20052;-72
2023/09/19 01:20:57;;;;;;;31.92;29.58;;;18.80;99.90;;;;;;5052814;28;20491;-72
2023/09/19 01:24:01;;;;;;;31.20;28.42;;;18.80;99.90;;;;;;5052672;28;20040;-73
2023/09/19 01:27:03;;;;;;;27.73;25.25;;;18.70;99.90;;;;;;5010477;28;20045;-73
2023/09/19 01:29:39;;;;;;;32.15;29.67;;;18.60;99.90;;;;;;5009854;28;20042;-73
2023/09/19 01:32:06;;;;;;;28.77;26.60;;;18.60;99.90;;;;;;5010008;28;20030;-73
2023/09/19 01:34:52;;;;;;;38.03;35.10;;;18.60;99.90;;;;;;5010597;28;20034;-73
2023/09/19 01:37:20;;;;;;;41.60;38.22;;;18.60;99.90;;;;;;4999699;28;20231;-72
2023/09/19 01:39:50;;;;;;;39.67;36.92;;;18.60;99.90;;;;;;4990819;28;20034;-73
2023/09/19 01:42:43;;;;;;;34.67;32.00;;;18.60;99.90;;;;;;5007980;28;20045;-73
2023/09/19 01:45:12;;;;;;;35.50;32.75;;;18.50;99.90;;;;;;5010151;28;20477;-73
2023/09/19 01:47:46;;;;;;;29.52;26.95;;;18.50;99.90;;;;;;5010085;28;20054;-73
2023/09/19 01:50:31;;;;;;;30.92;28.40;;;18.40;99.90;;;;;;5009930;28;20388;-73
2023/09/19 01:53:04;;;;;;;34.03;31.08;;;18.30;99.90;;;;;;5010367;28;20564;-73
2023/09/19 01:55:30;;;;;;;26.67;24.77;;;18.30;99.90;;;;;;5009614;28;20041;-73
2023/09/19 01:58:21;;;;;;;31.55;29.02;;;18.20;99.90;;;;;;5010843;28;20054;-71
2023/09/19 02:00:47;;;;;;;25.83;23.25;;;18.20;99.90;;;;;;5009484;28;20053;-70
2023/09/19 02:03:13;;;;;;;66.85;62.53;;;18.10;99.90;;;;;;5020714;28;20049;-71
2023/09/19 02:05:40;;;;;;;35.75;32.67;;;18.10;99.90;;;;;;5034874;28;20033;-70
2023/09/19 02:08:06;;;;;;;39.55;36.80;;;18.00;99.90;;;;;;5051017;28;20398;-71
2023/09/19 02:10:32;;;;;;;31.20;28.30;;;18.00;99.90;;;;;;5051876;28;20078;-71
2023/09/19 02:12:59;;;;;;;34.28;31.52;;;18.00;99.90;;;;;;5052827;28;20044;-71
2023/09/19 02:15:25;;;;;;;30.23;28.05;;;18.00;99.90;;;;;;5051073;28;20403;-71
2023/09/19 02:17:51;;;;;;;33.63;30.80;;;18.00;99.90;;;;;;5051819;28;20043;-71
2023/09/19 02:20:19;;;;;;;32.33;29.42;;;18.10;99.90;;;;;;5052003;28;20037;-71
2023/09/19 02:22:45;;;;;;;31.77;29.00;;;18.10;99.90;;;;;;5052285;28;20057;-71
2023/09/19 02:25:13;;;;;;;35.95;32.92;;;18.10;99.90;;;;;;5051580;28;20380;-71
2023/09/19 02:27:39;;;;;;;36.38;33.70;;;18.10;99.90;;;;;;5052258;28;20072;-70
2023/09/19 02:30:06;;;;;;;41.42;38.40;;;18.10;99.90;;;;;;5051635;28;20056;-70
2023/09/19 02:32:35;;;;;;;37.35;34.35;;;18.10;99.90;;;;;;5051501;28;20033;-70
2023/09/19 02:35:02;;;;;;;26.48;22.48;;;18.10;99.90;;;;;;5052255;28;20499;-70
2023/09/19 02:37:28;;;;;;;28.45;25.98;;;18.10;99.90;;;;;;5051554;28;20047;-70
2023/09/19 02:39:54;;;;;;;25.13;22.50;;;18.10;99.90;;;;;;5053279;28;20021;-71
2023/09/19 02:42:20;;;;;;;28.38;26.13;;;18.10;99.90;;;;;;5055463;28;20127;-71
2023/09/19 02:44:47;;;;;;;45.17;42.10;;;18.10;99.90;;;;;;5056125;28;20044;-71
2023/09/19 02:47:16;;;;;;;47.67;44.50;;;18.10;99.90;;;;;;5054884;28;20479;-71
2023/09/19 02:49:42;;;;;;;35.58;33.38;;;18.00;99.90;;;;;;5055818;28;20029;-71
2023/09/19 02:52:08;;;;;;;39.33;36.88;;;18.00;99.90;;;;;;5055544;28;20048;-70
2023/09/19 02:54:34;;;;;;;41.85;38.63;;;18.00;99.90;;;;;;5055753;28;20025;-71
2023/09/19 02:57:01;;;;;;;30.98;28.73;;;18.00;99.90;;;;;;5055377;28;20037;-70
2023/09/19 02:59:28;;;;;;;38.40;35.33;;;18.00;99.90;;;;;;5055731;28;20028;-71
2023/09/19 03:01:54;;;;;;;24.88;22.48;;;18.00;99.90;;;;;;5054633;28;20060;-71
2023/09/19 03:04:20;;;;;;;40.85;38.10;;;18.00;99.90;;;;;;5055525;28;20029;-70
2023/09/19 03:06:51;;;;;;;45.30;42.13;;;17.90;99.90;;;;;;5055346;28;20045;-70
2023/09/19 03:09:19;;;;;;;34.55;31.50;;;17.90;99.90;;;;;;5054135;28;20063;-70
2023/09/19 03:11:46;;;;;;;37.00;34.30;;;17.90;99.90;;;;;;5055240;28;20040;-71
2023/09/19 03:14:12;;;;;;;33.25;30.95;;;17.80;99.90;;;;;;5054835;28;20037;-70
2023/09/19 03:16:38;;;;;;;35.65;32.75;;;17.80;99.90;;;;;;5055056;28;20036;-70
2023/09/19 03:19:05;;;;;;;30.52;27.67;;;17.70;99.90;;;;;;5054000;28;20056;-71
2023/09/19 03:21:31;;;;;;;27.58;25.60;;;17.70;99.90;;;;;;5054868;28;20643;-71
2023/09/19 03:23:57;;;;;;;35.08;32.35;;;17.60;99.90;;;;;;5055268;28;20029;-71
2023/09/19 03:26:25;;;;;;;47.70;44.42;;;17.60;99.90;;;;;;5055165;28;20387;-71
2023/09/19 03:28:52;;;;;;;38.92;36.13;;;17.60;99.90;;;;;;5055018;28;20033;-71
2023/09/19 03:31:19;;;;;;;30.50;27.98;;;17.50;99.90;;;;;;5054341;28;20033;-71
2023/09/19 03:33:45;;;;;;;26.75;24.25;;;17.50;99.90;;;;;;5054894;28;20033;-71
2023/09/19 03:36:13;;;;;;;24.45;22.55;;;17.40;99.90;;;;;;5054575;28;20040;-70
2023/09/19 03:38:39;;;;;;;34.28;31.95;;;17.40;99.90;;;;;;5055084;28;20049;-71
2023/09/19 03:41:05;;;;;;;37.72;34.67;;;17.40;99.90;;;;;;5054415;28;20033;-71
2023/09/19 03:43:34;;;;;;;32.63;30.40;;;17.40;99.90;;;;;;5054796;28;20049;-70
2023/09/19 03:46:07;;;;;;;34.95;32.60;;;17.30;99.90;;;;;;5053962;28;20040;-70
2023/09/19 03:48:34;;;;;;;25.02;23.00;;;17.40;99.90;;;;;;5053534;28;20078;-73
2023/09/19 03:51:00;;;;;;;28.05;26.17;;;17.40;99.90;;;;;;5054101;28;20033;-73
2023/09/19 03:53:26;;;;;;;24.67;22.17;;;17.30;99.90;;;;;;5055071;28;20049;-73
2023/09/19 03:55:52;;;;;;;22.65;20.85;;;17.30;99.90;;;;;;5054578;28;20139;-73
2023/09/19 03:58:18;;;;;;;53.33;49.90;;;17.30;99.90;;;;;;5054502;28;20395;-73
2023/09/19 04:00:45;;;;;;;37.58;34.90;;;17.20;99.90;;;;;;5053667;28;20025;-73
2023/09/19 04:03:19;;;;;;;32.60;30.20;;;17.20;99.90;;;;;;5055137;28;20049;-72
2023/09/19 04:05:46;;;;;;;22.92;20.92;;;17.20;99.90;;;;;;5054221;28;20052;-73
2023/09/19 04:08:13;;;;;;;35.45;32.90;;;17.30;99.90;;;;;;5054215;28;20041;-72
2023/09/19 04:10:39;;;;;;;34.75;32.33;;;17.30;99.90;;;;;;5054112;28;20037;-72
2023/09/19 04:13:06;;;;;;;22.77;21.20;;;17.40;99.90;;;;;;5054351;28;20415;-73
2023/09/19 04:15:32;;;;;;;21.52;19.80;;;17.40;99.90;;;;;;5053413;28;20400;-73
2023/09/19 04:17:58;;;;;;;22.08;20.40;;;17.40;99.90;;;;;;5054338;28;20029;-72
2023/09/19 04:20:24;;;;;;;21.45;19.55;;;17.50;99.90;;;;;;5053758;28;20047;-73
2023/09/19 04:22:50;;;;;;;28.77;26.52;;;17.50;99.90;;;;;;5054143;28;20041;-72
2023/09/19 04:25:16;;;;;;;27.30;25.25;;;17.50;99.90;;;;;;5052440;28;20069;-72
2023/09/19 04:27:44;;;;;;;23.33;21.42;;;17.50;99.90;;;;;;5053674;28;20040;-73
2023/09/19 04:30:11;;;;;;;28.10;26.25;;;17.50;99.90;;;;;;5051824;28;20052;-73
2023/09/19 04:32:39;;;;;;;25.23;23.45;;;17.50;99.90;;;;;;5033859;28;20045;-72
2023/09/19 04:35:07;;;;;;;29.23;27.02;;;17.50;99.90;;;;;;5034459;28;20048;-73
2023/09/19 04:37:38;;;;;;;23.52;21.88;;;17.50;99.90;;;;;;5053352;28;20029;-72
2023/09/19 04:40:12;;;;;;;30.13;28.17;;;17.50;99.90;;;;;;5053828;28;20029;-73
2023/09/19 04:42:40;;;;;;;27.95;26.05;;;17.50;99.90;;;;;;5033540;28;20754;-72
2023/09/19 04:45:07;;;;;;;30.33;28.23;;;17.40;99.90;;;;;;5033375;28;20028;-73
2023/09/19 04:47:33;;;;;;;30.25;28.23;;;17.50;99.90;;;;;;5053040;28;20033;-72
2023/09/19 04:49:59;;;;;;;22.67;20.75;;;17.40;99.90;;;;;;5053701;28;20037;-71
2023/09/19 04:52:25;;;;;;;24.13;21.98;;;17.40;99.90;;;;;;5053769;28;20041;-71
2023/09/19 04:54:51;;;;;;;33.38;31.08;;;17.40;99.90;;;;;;5053512;28;20459;-70
2023/09/19 04:57:17;;;;;;;30.33;28.15;;;17.40;99.90;;;;;;5052727;28;20107;-71
2023/09/19 04:59:43;;;;;;;25.77;23.88;;;17.40;99.90;;;;;;5053364;28;20487;-70
2023/09/19 05:02:09;;;;;;;30.17;28.23;;;17.40;99.90;;;;;;5052426;28;20045;-71
2023/09/19 05:04:36;;;;;;;28.83;26.75;;;17.40;99.90;;;;;;5053046;28;20041;-71
2023/09/19 05:07:03;;;;;;;27.35;25.67;;;17.30;99.90;;;;;;5052646;28;20033;-71
2023/09/19 05:09:29;;;;;;;25.33;23.70;;;17.30;99.90;;;;;;5053143;28;20494;-71
2023/09/19 05:11:56;;;;;;;24.63;22.83;;;17.30;99.90;;;;;;5052548;28;20483;-73
2023/09/19 05:14:23;;;;;;;21.85;19.88;;;17.30;99.90;;;;;;5051284;28;20052;-71
2023/09/19 05:16:49;;;;;;;18.23;16.85;;;17.30;99.90;;;;;;5052474;28;20502;-71
2023/09/19 05:19:15;;;;;;;19.27;17.50;;;17.40;99.90;;;;;;5053113;28;20036;-71
2023/09/19 05:21:42;;;;;;;21.27;19.40;;;17.40;99.90;;;;;;5052484;28;20041;-71
2023/09/19 05:24:08;;;;;;;21.08;19.20;;;17.30;99.90;;;;;;5051844;28;20036;-71
2023/09/19 05:26:34;;;;;;;20.42;18.60;;;17.30;99.90;;;;;;5052440;28;20017;-71
2023/09/19 05:29:02;;;;;;;22.35;20.63;;;17.30;99.90;;;;;;5052918;28;20036;-71
2023/09/19 05:31:28;;;;;;;19.42;17.98;;;17.40;99.90;;;;;;5052653;28;20029;-70
2023/09/19 05:33:55;;;;;;;26.63;24.63;;;17.40;99.90;;;;;;5052619;28;20025;-71
2023/09/19 05:36:21;;;;;;;26.08;24.27;;;17.40;99.90;;;;;;5052868;28;20040;-71
2023/09/19 05:38:49;;;;;;;27.05;24.75;;;17.40;99.90;;;;;;5051309;28;20494;-71
2023/09/19 05:41:15;;;;;;;28.35;26.40;;;17.40;99.90;;;;;;5052143;28;20387;-71
2023/09/19 05:43:42;;;;;;;26.20;24.27;;;17.40;99.90;;;;;;5051522;28;20051;-71
2023/09/19 05:46:08;;;;;;;23.90;21.95;;;17.40;99.90;;;;;;5052168;28;20044;-71
2023/09/19 05:48:34;;;;;;;27.85;25.52;;;17.40;99.90;;;;;;5052419;28;20036;-71
2023/09/19 05:51:01;;;;;;;33.30;30.27;;;17.40;99.90;;;;;;5052287;28;20029;-70
2023/09/19 05:53:27;;;;;;;25.42;23.58;;;17.40;99.90;;;;;;5051388;28;20040;-71
2023/09/19 05:55:53;;;;;;;29.23;27.23;;;17.40;99.90;;;;;;5050875;28;20033;-71
2023/09/19 05:58:20;;;;;;;29.33;27.23;;;17.40;99.90;;;;;;5052517;28;20364;-70
2023/09/19 06:00:48;;;;;;;32.05;30.08;;;17.30;99.90;;;;;;5051724;28;20044;-70
2023/09/19 06:03:14;;;;;;;30.20;27.80;;;17.40;99.90;;;;;;5052269;28;20036;-71
2023/09/19 06:05:41;;;;;;;27.00;24.95;;;17.40;99.90;;;;;;5052292;28;20033;-71
2023/09/19 06:08:07;;;;;;;33.78;31.33;;;17.30;99.90;;;;;;5052517;28;20048;-71
2023/09/19 06:10:34;;;;;;;30.92;28.63;;;17.20;99.90;;;;;;5052223;28;20387;-71
2023/09/19 06:13:05;;;;;;;28.83;26.83;;;17.20;99.90;;;;;;5052640;28;20514;-71
2023/09/19 06:15:33;;;;;;;28.85;26.75;;;17.20;99.90;;;;;;5051072;28;20045;-70
2023/09/19 06:17:59;;;;;;;36.65;34.45;;;17.20;99.90;;;;;;5052471;28;20049;-70
2023/09/19 06:20:26;;;;;;;29.33;27.15;;;17.30;99.90;;;;;;5052570;28;20041;-71
2023/09/19 06:22:52;;;;;;;33.28;30.83;;;17.30;99.90;;;;;;5051796;28;20471;-70
2023/09/19 06:25:21;;;;;;;41.88;39.40;;;17.40;99.90;;;;;;5050593;28;20052;-71
2023/09/19 06:27:54;;;;;;;33.85;31.67;;;17.40;99.90;;;;;;5052464;28;20041;-73
2023/09/19 06:30:21;;;;;;;21.05;19.60;;;17.50;99.90;;;;;;5052198;28;20060;-73
2023/09/19 06:32:48;;;;;;;25.20;23.38;;;17.60;99.90;;;;;;5052117;28;20048;-73
2023/09/19 06:35:15;;;;;;;21.75;20.17;;;17.60;99.90;;;;;;5052031;28;20456;-73
2023/09/19 06:37:42;;;;;;;28.42;26.30;;;17.70;99.90;;;;;;5051630;28;20045;-73
2023/09/19 06:40:17;;;;;;;31.08;28.67;;;17.80;99.90;;;;;;5049761;28;20514;-73
2023/09/19 06:42:45;;;;;;;65.03;61.20;;;17.90;99.90;;;;;;5051772;28;20044;-73
2023/09/19 06:45:17;;;;;;;57.20;53.78;;;18.00;99.90;;;;;;5051365;28;20040;-72
2023/09/19 06:47:50;;;;;;;42.90;39.67;;;18.10;99.90;;;;;;5051700;28;20044;-73
2023/09/19 06:50:18;;;;;;;34.10;31.90;;;18.10;99.90;;;;;;5050102;28;20029;-72
2023/09/19 06:52:46;;;;;;;41.30;38.67;;;18.30;99.90;;;;;;5051040;28;20044;-72
2023/09/19 06:55:13;;;;;;;55.28;51.88;;;18.50;99.90;;;;;;5050272;28;20041;-73
2023/09/19 06:57:40;;;;;;;74.18;70.07;;;18.70;99.90;;;;;;5051739;28;20037;-73
2023/09/19 07:00:17;;;;;;;68.53;64.45;;;19.00;99.90;;;;;;5051523;28;20394;-74
2023/09/19 07:03:00;;;;;;;74.20;70.30;;;19.20;99.90;;;;;;5050396;28;20053;-73
2023/09/19 07:05:27;;;;;;;70.85;67.05;;;19.40;99.90;;;;;;5051316;28;20055;-73
2023/09/19 07:07:58;;;;;;;68.57;64.70;;;19.40;99.90;;;;;;5051352;28;20036;-73
2023/09/19 07:10:28;;;;;;;70.15;66.00;;;19.40;99.90;;;;;;5051785;28;20048;-73
2023/09/19 07:13:00;;;;;;;65.85;62.15;;;19.40;99.90;;;;;;5051934;28;20044;-73
2023/09/19 07:15:27;;;;;;;71.97;68.07;;;19.40;99.90;;;;;;5051035;28;20052;-73
2023/09/19 07:17:53;;;;;;;73.30;68.82;;;19.40;99.90;;;;;;5051556;28;20021;-73
2023/09/19 07:20:20;;;;;;;72.28;68.18;;;19.40;99.90;;;;;;5051643;28;20033;-72
2023/09/19 07:22:47;;;;;;;69.28;65.28;;;19.50;99.90;;;;;;5051522;28;20045;-72
2023/09/19 07:25:14;;;;;;;71.82;67.88;;;19.50;99.90;;;;;;5052084;28;20045;-73
2023/09/19 07:27:41;;;;;;;80.10;76.00;;;19.60;99.90;;;;;;5053713;28;20036;-73
2023/09/19 07:30:08;;;;;;;139.85;132.48;;;19.80;99.90;;;;;;5054706;28;20029;-73
2023/09/19 07:32:38;;;;;;;173.60;164.90;;;20.00;99.90;;;;;;5055744;28;20040;-73
2023/09/19 07:35:05;;;;;;;259.83;246.40;;;20.20;99.90;;;;;;5054933;28;20052;-73
2023/09/19 07:37:33;;;;;;;176.68;167.70;;;20.40;99.90;;;;;;5054335;28;20056;-73
2023/09/19 07:40:00;;;;;;;144.55;137.23;;;20.70;99.90;;;;;;5055275;28;20045;-72
2023/09/19 07:42:27;;;;;;;143.52;136.20;;;20.90;99.90;;;;;;5055006;28;20049;-71
2023/09/19 07:44:53;;;;;;;258.95;245.98;;;21.20;99.90;;;;;;5054775;28;20025;-71
2023/09/19 07:47:21;;;;;;;191.30;181.80;;;21.40;99.90;;;;;;5053313;28;20033;-71
2023/09/19 07:49:47;;;;;;;213.70;203.45;;;21.70;99.90;;;;;;5053028;28;20403;-70
2023/09/19 07:52:13;;;;;;;287.08;272.63;;;21.90;99.90;;;;;;5055108;28;20040;-71
2023/09/19 07:54:41;;;;;;;380.58;361.13;;;21.90;99.90;;;;;;5054704;28;20041;-71
2023/09/19 07:57:07;;;;;;;318.92;303.40;;;21.90;99.90;;;;;;5055285;28;20052;-71
2023/09/19 07:59:34;;;;;;;324.30;308.48;;;21.80;99.90;;;;;;5054597;28;20040;-71
2023/09/19 08:02:00;;;;;;;300.60;285.92;;;21.70;99.90;;;;;;5054046;28;20040;-71
2023/09/19 08:04:26;;;;;;;307.55;292.67;;;21.50;99.90;;;;;;5054306;28;20049;-71
2023/09/19 08:06:53;;;;;;;291.80;277.25;;;21.40;99.90;;;;;;5054130;28;20024;-71
2023/09/19 08:09:20;;;;;;;404.35;382.45;;;21.20;99.90;;;;;;5055043;28;20510;-71
2023/09/19 08:11:47;;;;;;;313.00;296.90;;;21.10;99.90;;;;;;5054815;28;20041;-71
2023/09/19 08:14:14;;;;;;;241.40;229.10;;;21.10;99.90;;;;;;5052494;28;20060;-71
2023/09/19 08:16:42;;;;;;;224.27;213.27;;;20.90;99.90;;;;;;5053937;28;20033;-71
2023/09/19 08:19:10;;;;;;;213.15;202.65;;;20.90;99.90;;;;;;5054588;28;20060;-71
2023/09/19 08:21:36;;;;;;;206.40;196.25;;;21.00;99.90;;;;;;5052769;28;20418;-71
2023/09/19 08:24:04;;;;;;;186.52;177.00;;;21.00;99.90;;;;;;5053939;28;20037;-71
2023/09/19 08:26:30;;;;;;;187.43;177.73;;;21.00;99.90;;;;;;5054010;28;20028;-71
2023/09/19 08:28:57;;;;;;;189.63;180.02;;;20.90;99.90;;;;;;5054155;28;20044;-71
2023/09/19 08:31:23;;;;;;;212.65;202.32;;;20.90;99.90;;;;;;5053548;28;20033;-71
2023/09/19 08:33:51;;;;;;;189.23;179.55;;;20.90;99.90;;;;;;5053697;28;20111;-71
2023/09/19 08:36:17;;;;;;;176.43;167.63;;;20.70;99.90;;;;;;5053975;28;20033;-71
2023/09/19 08:38:43;;;;;;;174.65;165.57;;;20.70;99.90;;;;;;5053600;28;20029;-71
2023/09/19 08:41:09;;;;;;;239.10;227.43;;;20.90;99.90;;;;;;5053546;28;20044;-71
2023/09/19 08:43:35;;;;;;;251.40;238.98;;;20.80;99.90;;;;;;5053682;28;20044;-71
2023/09/19 08:46:04;;;;;;;242.35;230.18;;;21.00;99.90;;;;;;5053209;28;20029;-71
2023/09/19 08:48:31;;;;;;;256.33;243.50;;;21.00;99.90;;;;;;5053340;28;20029;-71
2023/09/19 08:51:03;;;;;;;257.42;244.50;;;20.90;99.90;;;;;;5052323;28;20088;-71
2023/09/19 08:53:41;;;;;;;242.98;231.07;;;20.90;99.90;;;;;;5053452;28;20037;-70
2023/09/19 08:56:09;;;;;;;204.18;193.75;;;21.00;99.90;;;;;;5053199;28;20048;-70
2023/09/19 08:58:44;;;;;;;212.15;201.40;;;21.00;99.90;;;;;;5052256;28;20025;-71
2023/09/19 09:01:14;;;;;;;196.60;186.85;;;20.90;99.90;;;;;;5051737;28;20089;-71
2023/09/19 09:03:40;;;;;;;221.77;210.48;;;20.90;99.90;;;;;;5052829;28;20037;-71
2023/09/19 09:06:08;;;;;;;200.63;190.50;;;20.90;99.90;;;;;;5052128;28;20029;-71
2023/09/19 09:08:34;;;;;;;209.30;198.90;;;20.90;99.90;;;;;;5051990;28;20032;-71
2023/09/19 09:11:01;;;;;;;217.25;206.50;;;20.90;99.90;;;;;;5051952;28;20037;-73
2023/09/19 09:13:27;;;;;;;187.13;177.50;;;20.90;99.90;;;;;;5052731;28;20041;-73
2023/09/19 09:15:54;;;;;;;249.27;236.95;;;20.90;99.90;;;;;;5051485;28;20040;-73
2023/09/19 09:18:20;;;;;;;186.93;177.25;;;21.00;99.90;;;;;;5052709;28;20032;-73
2023/09/19 09:20:47;;;;;;;220.43;209.15;;;21.10;99.90;;;;;;5052995;28;20025;-73
2023/09/19 09:23:13;;;;;;;169.85;160.98;;;21.20;99.90;;;;;;5052862;28;20060;-73
2023/09/19 09:25:54;;;;;;;157.60;149.70;;;21.30;99.90;;;;;;5053007;28;20033;-73
2023/09/19 09:28:21;;;;;;;180.52;171.35;;;21.50;99.90;;;;;;5051724;28;20040;-73
2023/09/19 09:30:47;;;;;;;207.55;196.98;;;21.70;99.90;;;;;;5052553;28;20033;-73
2023/09/19 09:33:15;;;;;;;208.07;197.82;;;21.90;99.90;;;;;;5053011;28;20041;-73
2023/09/19 09:36:08;;;;;;;268.50;255.40;;;21.90;99.90;;;;;;5052700;28;20538;-73
2023/09/19 09:38:48;;;;;;;236.23;224.90;;;21.90;99.90;;;;;;5030368;28;20046;-73
2023/09/19 09:41:26;;;;;;;297.48;283.10;;;21.90;99.90;;;;;;5032681;28;20049;-73
2023/09/19 09:43:53;;;;;;;303.10;288.02;;;21.90;99.90;;;;;;5032644;28;20484;-73
2023/09/19 09:51:57;;;;;;;300.30;285.45;;;22.00;99.90;;;;;;5032928;28;20528;-73
2023/09/19 09:54:24;;;;;;;323.00;307.00;;;22.00;99.90;;;;;;5031590;28;20037;-73
2023/09/19 09:57:00;;;;;;;341.10;324.13;;;22.00;99.90;;;;;;5032633;28;20037;-73
2023/09/19 09:59:47;;;;;;;316.10;300.42;;;22.00;99.90;;;;;;5032720;28;20041;-73
2023/09/19 10:02:20;;;;;;;312.60;297.20;;;22.00;99.90;;;;;;5031828;28;20030;-73
2023/09/19 10:05:40;;;;;;;300.17;285.75;;;22.00;99.90;;;;;;5031298;28;20037;-73
2023/09/19 10:07:35;;;;;;;365.80;347.17;;;22.00;99.90;;;;;;5040549;28;20483;-73
2023/09/19 10:10:10;;;;;;;354.90;336.92;;;22.10;99.90;;;;;;5052382;28;20490;-73
2023/09/19 10:12:38;;;;;;;359.48;341.38;;;22.20;99.90;;;;;;5052141;28;20395;-73
2023/09/19 10:15:07;;;;;;;412.13;391.25;;;22.30;99.90;;;;;;5033627;28;20045;-73
2023/09/19 10:17:34;;;;;;;410.98;389.95;;;22.40;99.90;;;;;;5034159;28;20456;-74
2023/09/19 10:20:09;;;;;;;387.70;368.17;;;22.40;99.90;;;;;;5034623;28;20037;-71
2023/09/19 10:22:35;;;;;;;398.88;378.67;;;22.40;99.90;;;;;;5035482;28;20071;-71
2023/09/19 10:25:02;;;;;;;406.40;386.20;;;22.40;99.90;;;;;;5051829;28;20037;-71
2023/09/19 10:27:29;;;;;;;406.48;386.17;;;22.40;99.90;;;;;;5050679;28;20042;-71
2023/09/19 10:29:55;;;;;;;425.45;403.92;;;22.30;99.90;;;;;;5050552;28;20463;-71
2023/09/19 10:32:23;;;;;;;435.50;413.88;;;22.20;99.90;;;;;;5050308;28;20033;-73
2023/09/19 10:34:49;;;;;;;326.92;310.83;;;22.20;99.90;;;;;;5052370;28;20056;-71
2023/09/19 10:37:16;;;;;;;447.02;424.98;;;22.30;99.90;;;;;;5051757;28;20024;-71
2023/09/19 10:39:46;;;;;;;299.42;284.63;;;22.30;99.90;;;;;;5051876;28;20025;-71
2023/09/19 10:42:17;;;;;;;341.40;324.70;;;22.30;99.90;;;;;;5051711;28;20096;-71
2023/09/19 10:44:43;;;;;;;310.80;295.08;;;22.40;99.90;;;;;;5050318;28;20411;-71
2023/09/19 10:47:10;;;;;;;336.15;319.73;;;22.40;99.90;;;;;;5049804;28;20052;-71
2023/09/19 10:49:43;;;;;;;397.50;377.85;;;22.20;99.90;;;;;;5052302;28;20392;-71
2023/09/19 10:52:12;;;;;;;345.50;328.48;;;22.30;99.90;;;;;;5050718;28;20025;-71
2023/09/19 10:54:41;;;;;;;308.53;292.90;;;22.40;99.90;;;;;;5051933;28;20041;-71
2023/09/19 10:57:08;;;;;;;327.85;310.13;;;22.50;99.90;;;;;;5050264;28;20037;-71
2023/09/19 10:59:34;;;;;;;325.52;308.58;;;22.60;99.90;;;;;;5033923;28;20068;-71
2023/09/19 11:02:15;;;;;;;332.90;315.20;;;22.70;99.90;;;;;;5054533;28;20037;-71
2023/09/19 11:04:42;;;;;;;327.50;310.55;;;22.80;99.90;;;;;;5054537;28;20051;-71
2023/09/19 11:07:12;;;;;;;351.42;333.88;;;22.80;99.90;;;;;;5055571;28;20037;-71
2023/09/19 11:09:46;;;;;;;377.45;358.25;;;22.90;99.90;;;;;;5055660;28;20024;-71
2023/09/19 11:12:24;;;;;;;429.90;408.00;;;23.10;99.90;;;;;;5055284;28;20044;-73
2023/09/19 11:14:52;;;;;;;411.33;390.40;;;23.20;99.90;;;;;;5053450;28;20049;-71
2023/09/19 11:17:21;;;;;;;410.95;390.10;;;23.20;99.90;;;;;;5054818;28;20060;-70
2023/09/19 11:22:50;;;;;;;406.15;385.45;;;23.30;99.90;;;;;;5062002;28;20033;-74
2023/09/19 11:25:34;;;;;;;394.05;373.92;;;23.40;99.90;;;;;;5055623;28;20400;-73
2023/09/19 11:28:12;;;;;;;334.23;317.13;;;23.30;99.90;;;;;;5055128;28;20537;-72
2023/09/19 11:30:39;;;;;;;431.83;409.23;;;23.30;99.90;;;;;;5054956;28;20029;-72
2023/09/19 11:33:33;;;;;;;443.95;420.70;;;23.20;99.90;;;;;;5055759;28;20037;-74
2023/09/19 11:36:15;;;;;;;442.88;420.00;;;23.20;99.90;;;;;;5055631;28;20305;-73
2023/09/19 11:38:44;;;;;;;506.65;479.63;;;23.30;99.90;;;;;;5034620;28;20049;-73
2023/09/19 11:41:26;;;;;;;411.58;389.88;;;23.40;99.90;;;;;;5034077;28;20439;-73
2023/09/19 11:43:55;;;;;;;424.65;402.05;;;23.50;99.90;;;;;;5035050;28;20050;-73
2023/09/19 11:46:21;;;;;;;446.48;423.10;;;23.60;99.90;;;;;;5034545;28;20503;-74
2023/09/19 11:48:49;;;;;;;489.70;463.55;;;23.60;99.90;;;;;;5034686;28;20030;-73
2023/09/19 11:51:19;;;;;;;439.95;416.40;;;23.70;99.90;;;;;;5035371;28;20064;-74
2023/09/19 11:53:48;;;;;;;459.95;435.83;;;23.70;99.90;;;;;;5034910;28;20040;-73
2023/09/19 11:56:18;;;;;;;436.75;413.42;;;23.70;99.90;;;;;;5034662;28;20384;-74
2023/09/19 11:58:45;;;;;;;584.45;550.65;;;23.60;99.90;;;;;;5034299;28;20044;-73
2023/09/19 12:01:21;;;;;;;562.50;531.20;;;23.60;99.90;;;;;;5034510;28;20040;-74
2023/09/19 12:03:50;;;;;;;470.65;445.73;;;23.60;99.90;;;;;;5034399;28;20041;-73
2023/09/19 12:06:19;;;;;;;434.70;411.35;;;23.70;99.90;;;;;;5034579;28;20047;-74
2023/09/19 12:08:48;;;;;;;;;;;23.80;99.90;;;;;;5053811;28;20518;-73
2023/09/19 12:11:15;;;;;;;413.77;392.02;;;23.80;99.90;;;;;;5054519;28;19912;-73
2023/09/19 12:13:45;;;;;;;405.58;384.38;;;23.90;99.90;;;;;;5052880;28;20048;-74
2023/09/19 12:16:14;;;;;;;442.15;418.83;;;23.90;99.90;;;;;;5054007;28;20044;-74
2023/09/19 12:18:43;;;;;;;457.88;434.25;;;23.80;99.90;;;;;;5054367;28;20033;-73
2023/09/19 12:21:23;;;;;;;461.13;436.85;;;23.70;99.90;;;;;;5054221;28;20044;-74
2023/09/19 12:24:19;;;;;;;449.90;426.60;;;23.60;99.90;;;;;;5054535;28;20056;-74
2023/09/19 12:26:47;;;;;;;465.10;440.85;;;23.60;99.90;;;;;;5053935;28;20041;-73
2023/09/19 12:29:17;;;;;;;475.48;450.70;;;23.60;99.90;;;;;;5054059;28;20048;-73
2023/09/19 12:32:04;;;;;;;400.52;380.00;;;23.60;99.90;;;;;;5051426;28;20521;-71
2023/09/19 12:34:34;;;;;;;335.13;318.13;;;23.80;99.90;;;;;;5053607;28;20479;-71
2023/09/19 12:37:15;;;;;;;318.73;302.95;;;23.80;99.90;;;;;;5053808;28;20055;-71
2023/09/19 12:39:53;;;;;;;307.35;291.98;;;23.70;99.90;;;;;;5053692;28;20037;-71